sensor_id;sensor_type;location;lat;lon;timestamp;P1;durP1;ratioP1;P2;durP2;ratioP2
47758;SDS011;33520;55.122;35.582;2023-01-08T00:02:03;3.15;;;2.15;;
47758;SDS011;33520;55.122;35.582;2023-01-08T00:04:29;11.00;;;2.72;;
47758;SDS011;33520;55.122;35.582;2023-01-08T00:06:56;2.20;;;1.80;;
47758;SDS011;33520;55.122;35.582;2023-01-08T00:09:22;1.90;;;1.80;;
47758;SDS011;33520;55.122;35.582;2023-01-08T00:11:48;4.90;;;2.65;;
47758;SDS011;33520;55.122;35.582;2023-01-08T00:14:14;2.53;;;1.45;;
47758;SDS011;33520;55.122;35.582;2023-01-08T00:16:41;4.53;;;2.53;;
47758;SDS011;33520;55.122;35.582;2023-01-08T00:19:07;4.00;;;2.67;;
47758;SDS011;33520;55.122;35.582;2023-01-08T00:21:33;1.98;;;1.70;;
47758;SDS011;33520;55.122;35.582;2023-01-08T00:24:01;2.00;;;1.13;;
47758;SDS011;33520;55.122;35.582;2023-01-08T00:26:28;1.70;;;1.23;;
47758;SDS011;33520;55.122;35.582;2023-01-08T00:28:54;7.00;;;2.22;;
47758;SDS011;33520;55.122;35.582;2023-01-08T00:31:20;5.50;;;2.55;;
47758;SDS011;33520;55.122;35.582;2023-01-08T00:33:47;4.32;;;2.00;;
47758;SDS011;33520;55.122;35.582;2023-01-08T00:36:14;1.92;;;1.23;;
47758;SDS011;33520;55.122;35.582;2023-01-08T00:38:42;1.63;;;1.33;;
47758;SDS011;33520;55.122;35.582;2023-01-08T00:41:09;2.03;;;1.70;;
47758;SDS011;33520;55.122;35.582;2023-01-08T00:43:37;1.88;;;1.65;;
47758;SDS011;33520;55.122;35.582;2023-01-08T00:46:03;1.60;;;1.48;;
47758;SDS011;33520;55.122;35.582;2023-01-08T00:48:30;4.88;;;1.95;;
47758;SDS011;33520;55.122;35.582;2023-01-08T00:51:00;1.65;;;1.55;;
47758;SDS011;33520;55.122;35.582;2023-01-08T00:53:26;2.60;;;1.55;;
47758;SDS011;33520;55.122;35.582;2023-01-08T00:55:58;1.73;;;1.63;;
47758;SDS011;33520;55.122;35.582;2023-01-08T00:58:25;4.95;;;2.20;;
47758;SDS011;33520;55.122;35.582;2023-01-08T01:00:51;6.07;;;2.17;;
47758;SDS011;33520;55.122;35.582;2023-01-08T01:03:18;4.07;;;2.38;;
47758;SDS011;33520;55.122;35.582;2023-01-08T01:05:44;3.85;;;1.98;;
47758;SDS011;33520;55.122;35.582;2023-01-08T01:08:10;2.13;;;1.98;;
47758;SDS011;33520;55.122;35.582;2023-01-08T01:10:39;6.22;;;2.15;;
47758;SDS011;33520;55.122;35.582;2023-01-08T01:13:05;4.28;;;1.98;;
47758;SDS011;33520;55.122;35.582;2023-01-08T01:15:32;3.30;;;1.45;;
47758;SDS011;33520;55.122;35.582;2023-01-08T01:17:58;6.22;;;2.28;;
47758;SDS011;33520;55.122;35.582;2023-01-08T01:20:24;2.40;;;1.92;;
47758;SDS011;33520;55.122;35.582;2023-01-08T01:22:50;1.58;;;1.17;;
47758;SDS011;33520;55.122;35.582;2023-01-08T01:25:17;1.40;;;1.20;;
47758;SDS011;33520;55.122;35.582;2023-01-08T01:27:44;3.13;;;1.13;;
47758;SDS011;33520;55.122;35.582;2023-01-08T01:30:10;4.32;;;2.53;;
47758;SDS011;33520;55.122;35.582;2023-01-08T01:32:37;5.28;;;1.90;;
47758;SDS011;33520;55.122;35.582;2023-01-08T01:35:03;7.15;;;3.15;;
47758;SDS011;33520;55.122;35.582;2023-01-08T01:37:30;5.60;;;2.60;;
47758;SDS011;33520;55.122;35.582;2023-01-08T01:39:56;3.83;;;2.33;;
47758;SDS011;33520;55.122;35.582;2023-01-08T01:42:22;5.55;;;2.25;;
47758;SDS011;33520;55.122;35.582;2023-01-08T01:47:43;3.50;;;2.13;;
47758;SDS011;33520;55.122;35.582;2023-01-08T01:50:17;3.25;;;2.10;;
47758;SDS011;33520;55.122;35.582;2023-01-08T01:55:22;2.70;;;1.27;;
47758;SDS011;33520;55.122;35.582;2023-01-08T01:57:50;5.95;;;2.22;;
47758;SDS011;33520;55.122;35.582;2023-01-08T02:00:20;7.00;;;1.75;;
47758;SDS011;33520;55.122;35.582;2023-01-08T02:02:47;2.03;;;1.83;;
47758;SDS011;33520;55.122;35.582;2023-01-08T02:05:14;3.95;;;2.50;;
47758;SDS011;33520;55.122;35.582;2023-01-08T02:07:46;2.35;;;2.15;;
47758;SDS011;33520;55.122;35.582;2023-01-08T02:12:54;4.75;;;1.70;;
47758;SDS011;33520;55.122;35.582;2023-01-08T02:20:52;1.40;;;1.30;;
47758;SDS011;33520;55.122;35.582;2023-01-08T02:31:31;2.78;;;2.28;;
47758;SDS011;33520;55.122;35.582;2023-01-08T02:33:58;2.53;;;1.67;;
47758;SDS011;33520;55.122;35.582;2023-01-08T02:44:19;2.45;;;0.98;;
47758;SDS011;33520;55.122;35.582;2023-01-08T02:47:10;3.85;;;1.63;;
47758;SDS011;33520;55.122;35.582;2023-01-08T02:49:41;5.68;;;1.67;;
47758;SDS011;33520;55.122;35.582;2023-01-08T02:52:08;2.58;;;1.65;;
47758;SDS011;33520;55.122;35.582;2023-01-08T02:54:35;2.45;;;2.00;;
47758;SDS011;33520;55.122;35.582;2023-01-08T02:57:05;5.15;;;2.17;;
47758;SDS011;33520;55.122;35.582;2023-01-08T02:59:35;3.00;;;1.45;;
47758;SDS011;33520;55.122;35.582;2023-01-08T03:02:02;2.58;;;1.52;;
47758;SDS011;33520;55.122;35.582;2023-01-08T03:04:30;1.98;;;1.83;;
47758;SDS011;33520;55.122;35.582;2023-01-08T03:06:57;1.75;;;1.63;;
47758;SDS011;33520;55.122;35.582;2023-01-08T03:09:24;2.05;;;1.80;;
47758;SDS011;33520;55.122;35.582;2023-01-08T03:11:52;1.45;;;1.20;;
47758;SDS011;33520;55.122;35.582;2023-01-08T03:14:24;2.13;;;1.88;;
47758;SDS011;33520;55.122;35.582;2023-01-08T03:17:04;3.88;;;2.40;;
47758;SDS011;33520;55.122;35.582;2023-01-08T03:19:41;2.30;;;1.60;;
47758;SDS011;33520;55.122;35.582;2023-01-08T03:22:10;1.02;;;0.98;;
47758;SDS011;33520;55.122;35.582;2023-01-08T03:24:38;3.60;;;2.13;;
47758;SDS011;33520;55.122;35.582;2023-01-08T03:27:07;7.05;;;2.33;;
47758;SDS011;33520;55.122;35.582;2023-01-08T03:29:35;2.70;;;1.80;;
47758;SDS011;33520;55.122;35.582;2023-01-08T03:32:03;5.60;;;1.17;;
47758;SDS011;33520;55.122;35.582;2023-01-08T03:34:31;5.07;;;2.83;;
47758;SDS011;33520;55.122;35.582;2023-01-08T03:36:59;2.20;;;1.58;;
47758;SDS011;33520;55.122;35.582;2023-01-08T03:39:28;1.23;;;1.13;;
47758;SDS011;33520;55.122;35.582;2023-01-08T03:42:04;2.78;;;2.17;;
47758;SDS011;33520;55.122;35.582;2023-01-08T03:44:32;1.60;;;1.20;;
47758;SDS011;33520;55.122;35.582;2023-01-08T03:46:59;2.72;;;1.33;;
47758;SDS011;33520;55.122;35.582;2023-01-08T03:49:25;1.75;;;1.60;;
47758;SDS011;33520;55.122;35.582;2023-01-08T03:51:53;1.55;;;1.38;;
47758;SDS011;33520;55.122;35.582;2023-01-08T03:54:21;1.65;;;1.42;;
47758;SDS011;33520;55.122;35.582;2023-01-08T03:56:50;2.92;;;1.73;;
47758;SDS011;33520;55.122;35.582;2023-01-08T03:59:16;1.70;;;1.60;;
47758;SDS011;33520;55.122;35.582;2023-01-08T04:01:43;1.27;;;1.17;;
47758;SDS011;33520;55.122;35.582;2023-01-08T04:04:09;7.88;;;2.83;;
47758;SDS011;33520;55.122;35.582;2023-01-08T04:06:36;2.90;;;1.90;;
47758;SDS011;33520;55.122;35.582;2023-01-08T04:09:02;5.60;;;2.13;;
47758;SDS011;33520;55.122;35.582;2023-01-08T04:11:29;3.17;;;2.05;;
47758;SDS011;33520;55.122;35.582;2023-01-08T04:13:55;3.15;;;1.52;;
47758;SDS011;33520;55.122;35.582;2023-01-08T04:16:22;3.22;;;1.25;;
47758;SDS011;33520;55.122;35.582;2023-01-08T04:18:48;2.25;;;1.75;;
47758;SDS011;33520;55.122;35.582;2023-01-08T04:21:14;4.30;;;1.33;;
47758;SDS011;33520;55.122;35.582;2023-01-08T04:23:41;1.67;;;1.10;;
47758;SDS011;33520;55.122;35.582;2023-01-08T04:26:07;2.17;;;1.48;;
47758;SDS011;33520;55.122;35.582;2023-01-08T04:28:34;5.70;;;2.42;;
47758;SDS011;33520;55.122;35.582;2023-01-08T04:31:04;2.45;;;1.35;;
47758;SDS011;33520;55.122;35.582;2023-01-08T04:33:31;1.45;;;1.38;;
47758;SDS011;33520;55.122;35.582;2023-01-08T04:35:58;4.68;;;1.98;;
47758;SDS011;33520;55.122;35.582;2023-01-08T04:38:24;2.95;;;2.25;;
47758;SDS011;33520;55.122;35.582;2023-01-08T04:40:55;1.65;;;1.55;;
47758;SDS011;33520;55.122;35.582;2023-01-08T04:43:25;5.05;;;2.00;;
47758;SDS011;33520;55.122;35.582;2023-01-08T04:45:51;2.00;;;1.80;;
47758;SDS011;33520;55.122;35.582;2023-01-08T04:48:17;3.70;;;2.10;;
47758;SDS011;33520;55.122;35.582;2023-01-08T04:50:43;3.10;;;1.88;;
47758;SDS011;33520;55.122;35.582;2023-01-08T04:53:10;3.45;;;2.03;;
47758;SDS011;33520;55.122;35.582;2023-01-08T04:55:36;3.03;;;2.70;;
47758;SDS011;33520;55.122;35.582;2023-01-08T04:58:03;3.33;;;2.80;;
47758;SDS011;33520;55.122;35.582;2023-01-08T05:00:29;1.73;;;1.63;;
47758;SDS011;33520;55.122;35.582;2023-01-08T05:02:55;2.90;;;1.77;;
47758;SDS011;33520;55.122;35.582;2023-01-08T05:05:22;1.25;;;1.10;;
47758;SDS011;33520;55.122;35.582;2023-01-08T05:07:48;1.20;;;1.17;;
47758;SDS011;33520;55.122;35.582;2023-01-08T05:10:14;4.15;;;2.00;;
47758;SDS011;33520;55.122;35.582;2023-01-08T05:12:40;0.90;;;0.90;;
47758;SDS011;33520;55.122;35.582;2023-01-08T05:15:07;4.10;;;1.50;;
47758;SDS011;33520;55.122;35.582;2023-01-08T05:17:34;2.35;;;1.55;;
47758;SDS011;33520;55.122;35.582;2023-01-08T05:20:00;5.10;;;2.90;;
47758;SDS011;33520;55.122;35.582;2023-01-08T05:22:26;6.45;;;2.55;;
47758;SDS011;33520;55.122;35.582;2023-01-08T05:24:53;2.65;;;2.08;;
47758;SDS011;33520;55.122;35.582;2023-01-08T05:27:19;2.60;;;2.00;;
47758;SDS011;33520;55.122;35.582;2023-01-08T05:29:45;2.20;;;1.92;;
47758;SDS011;33520;55.122;35.582;2023-01-08T05:32:16;4.43;;;3.03;;
47758;SDS011;33520;55.122;35.582;2023-01-08T05:34:43;3.00;;;2.00;;
47758;SDS011;33520;55.122;35.582;2023-01-08T05:37:10;2.28;;;2.00;;
47758;SDS011;33520;55.122;35.582;2023-01-08T05:39:36;1.77;;;1.67;;
47758;SDS011;33520;55.122;35.582;2023-01-08T05:42:03;2.20;;;2.03;;
47758;SDS011;33520;55.122;35.582;2023-01-08T05:44:29;4.97;;;2.15;;
47758;SDS011;33520;55.122;35.582;2023-01-08T05:46:56;8.05;;;1.90;;
47758;SDS011;33520;55.122;35.582;2023-01-08T05:49:22;2.97;;;2.00;;
47758;SDS011;33520;55.122;35.582;2023-01-08T05:51:49;2.92;;;1.77;;
47758;SDS011;33520;55.122;35.582;2023-01-08T05:54:15;6.47;;;3.13;;
47758;SDS011;33520;55.122;35.582;2023-01-08T05:56:42;6.53;;;2.63;;
47758;SDS011;33520;55.122;35.582;2023-01-08T05:59:11;6.85;;;2.95;;
47758;SDS011;33520;55.122;35.582;2023-01-08T06:01:38;2.92;;;1.50;;
47758;SDS011;33520;55.122;35.582;2023-01-08T06:04:05;5.80;;;3.45;;
47758;SDS011;33520;55.122;35.582;2023-01-08T06:06:31;6.72;;;2.33;;
47758;SDS011;33520;55.122;35.582;2023-01-08T06:08:57;5.28;;;2.20;;
47758;SDS011;33520;55.122;35.582;2023-01-08T06:11:24;1.30;;;1.20;;
47758;SDS011;33520;55.122;35.582;2023-01-08T06:13:50;5.82;;;3.08;;
47758;SDS011;33520;55.122;35.582;2023-01-08T06:16:16;1.70;;;1.60;;
47758;SDS011;33520;55.122;35.582;2023-01-08T06:18:43;2.97;;;1.63;;
47758;SDS011;33520;55.122;35.582;2023-01-08T06:21:10;3.00;;;2.10;;
47758;SDS011;33520;55.122;35.582;2023-01-08T06:23:38;3.42;;;2.97;;
47758;SDS011;33520;55.122;35.582;2023-01-08T06:26:04;8.13;;;2.35;;
47758;SDS011;33520;55.122;35.582;2023-01-08T06:28:31;2.85;;;1.50;;
47758;SDS011;33520;55.122;35.582;2023-01-08T06:30:58;7.55;;;2.25;;
47758;SDS011;33520;55.122;35.582;2023-01-08T06:33:25;2.53;;;2.05;;
47758;SDS011;33520;55.122;35.582;2023-01-08T06:35:52;4.18;;;1.73;;
47758;SDS011;33520;55.122;35.582;2023-01-08T06:38:19;2.17;;;1.40;;
47758;SDS011;33520;55.122;35.582;2023-01-08T06:40:46;3.22;;;2.40;;
47758;SDS011;33520;55.122;35.582;2023-01-08T06:43:12;8.55;;;2.33;;
47758;SDS011;33520;55.122;35.582;2023-01-08T06:45:39;3.40;;;2.45;;
47758;SDS011;33520;55.122;35.582;2023-01-08T06:48:06;3.97;;;3.47;;
47758;SDS011;33520;55.122;35.582;2023-01-08T06:50:32;2.42;;;1.88;;
47758;SDS011;33520;55.122;35.582;2023-01-08T06:52:59;4.82;;;1.92;;
47758;SDS011;33520;55.122;35.582;2023-01-08T06:55:27;5.22;;;2.47;;
47758;SDS011;33520;55.122;35.582;2023-01-08T06:57:54;3.22;;;2.33;;
47758;SDS011;33520;55.122;35.582;2023-01-08T07:00:24;5.30;;;2.33;;
47758;SDS011;33520;55.122;35.582;2023-01-08T07:02:52;4.13;;;2.15;;
47758;SDS011;33520;55.122;35.582;2023-01-08T07:05:18;6.05;;;2.53;;
47758;SDS011;33520;55.122;35.582;2023-01-08T07:07:45;3.78;;;2.10;;
47758;SDS011;33520;55.122;35.582;2023-01-08T07:10:11;4.10;;;2.03;;
47758;SDS011;33520;55.122;35.582;2023-01-08T07:15:04;14.75;;;3.72;;
47758;SDS011;33520;55.122;35.582;2023-01-08T07:17:31;3.50;;;2.67;;
47758;SDS011;33520;55.122;35.582;2023-01-08T07:19:58;5.20;;;2.80;;
47758;SDS011;33520;55.122;35.582;2023-01-08T07:22:24;6.13;;;2.15;;
47758;SDS011;33520;55.122;35.582;2023-01-08T07:24:51;9.43;;;3.03;;
47758;SDS011;33520;55.122;35.582;2023-01-08T07:27:17;1.98;;;1.67;;
47758;SDS011;33520;55.122;35.582;2023-01-08T07:29:44;5.60;;;3.22;;
47758;SDS011;33520;55.122;35.582;2023-01-08T07:32:11;4.32;;;2.28;;
47758;SDS011;33520;55.122;35.582;2023-01-08T07:34:38;4.25;;;2.25;;
47758;SDS011;33520;55.122;35.582;2023-01-08T07:37:04;2.88;;;1.83;;
47758;SDS011;33520;55.122;35.582;2023-01-08T07:39:31;3.25;;;2.05;;
47758;SDS011;33520;55.122;35.582;2023-01-08T07:41:57;6.43;;;2.35;;
47758;SDS011;33520;55.122;35.582;2023-01-08T07:44:23;5.75;;;3.20;;
47758;SDS011;33520;55.122;35.582;2023-01-08T07:49:16;1.52;;;1.42;;
47758;SDS011;33520;55.122;35.582;2023-01-08T07:54:08;1.33;;;1.27;;
47758;SDS011;33520;55.122;35.582;2023-01-08T07:56:34;1.85;;;1.75;;
47758;SDS011;33520;55.122;35.582;2023-01-08T08:01:27;5.32;;;2.10;;
47758;SDS011;33520;55.122;35.582;2023-01-08T08:03:53;3.22;;;1.98;;
47758;SDS011;33520;55.122;35.582;2023-01-08T08:08:45;2.00;;;1.73;;
47758;SDS011;33520;55.122;35.582;2023-01-08T08:11:11;3.38;;;1.60;;
47758;SDS011;33520;55.122;35.582;2023-01-08T08:13:38;8.57;;;1.92;;
47758;SDS011;33520;55.122;35.582;2023-01-08T08:16:09;4.95;;;1.92;;
47758;SDS011;33520;55.122;35.582;2023-01-08T08:18:36;4.30;;;1.67;;
47758;SDS011;33520;55.122;35.582;2023-01-08T08:21:02;4.43;;;1.83;;
47758;SDS011;33520;55.122;35.582;2023-01-08T08:25:54;5.97;;;3.15;;
47758;SDS011;33520;55.122;35.582;2023-01-08T08:28:20;4.53;;;2.30;;
47758;SDS011;33520;55.122;35.582;2023-01-08T08:30:46;1.88;;;1.67;;
47758;SDS011;33520;55.122;35.582;2023-01-08T08:33:12;4.47;;;2.67;;
47758;SDS011;33520;55.122;35.582;2023-01-08T08:38:05;10.82;;;3.08;;
47758;SDS011;33520;55.122;35.582;2023-01-08T08:40:31;4.25;;;2.15;;
47758;SDS011;33520;55.122;35.582;2023-01-08T08:42:59;3.15;;;1.55;;
47758;SDS011;33520;55.122;35.582;2023-01-08T08:45:26;3.08;;;2.13;;
47758;SDS011;33520;55.122;35.582;2023-01-08T08:47:53;5.75;;;1.88;;
47758;SDS011;33520;55.122;35.582;2023-01-08T08:50:19;7.07;;;2.03;;
47758;SDS011;33520;55.122;35.582;2023-01-08T08:52:46;5.63;;;2.17;;
47758;SDS011;33520;55.122;35.582;2023-01-08T08:55:13;5.32;;;2.42;;
47758;SDS011;33520;55.122;35.582;2023-01-08T08:57:45;4.18;;;1.73;;
47758;SDS011;33520;55.122;35.582;2023-01-08T09:00:12;4.03;;;1.98;;
47758;SDS011;33520;55.122;35.582;2023-01-08T09:02:39;4.40;;;2.28;;
47758;SDS011;33520;55.122;35.582;2023-01-08T09:07:32;4.85;;;1.83;;
47758;SDS011;33520;55.122;35.582;2023-01-08T09:09:58;5.70;;;2.40;;
47758;SDS011;33520;55.122;35.582;2023-01-08T09:14:51;6.20;;;2.00;;
47758;SDS011;33520;55.122;35.582;2023-01-08T09:17:19;8.27;;;2.78;;
47758;SDS011;33520;55.122;35.582;2023-01-08T09:19:46;3.55;;;2.13;;
47758;SDS011;33520;55.122;35.582;2023-01-08T09:24:38;3.80;;;1.83;;
47758;SDS011;33520;55.122;35.582;2023-01-08T09:27:05;4.60;;;1.73;;
47758;SDS011;33520;55.122;35.582;2023-01-08T09:29:32;3.30;;;2.17;;
47758;SDS011;33520;55.122;35.582;2023-01-08T09:31:58;5.22;;;1.90;;
47758;SDS011;33520;55.122;35.582;2023-01-08T09:34:26;3.95;;;1.85;;
47758;SDS011;33520;55.122;35.582;2023-01-08T09:36:54;6.05;;;2.00;;
47758;SDS011;33520;55.122;35.582;2023-01-08T09:39:20;4.20;;;2.00;;
47758;SDS011;33520;55.122;35.582;2023-01-08T09:44:14;6.25;;;1.92;;
47758;SDS011;33520;55.122;35.582;2023-01-08T09:46:42;9.23;;;2.60;;
47758;SDS011;33520;55.122;35.582;2023-01-08T09:49:10;5.28;;;2.15;;
47758;SDS011;33520;55.122;35.582;2023-01-08T09:51:38;4.78;;;2.05;;
47758;SDS011;33520;55.122;35.582;2023-01-08T09:54:05;5.78;;;2.72;;
47758;SDS011;33520;55.122;35.582;2023-01-08T09:56:34;5.93;;;1.83;;
47758;SDS011;33520;55.122;35.582;2023-01-08T09:59:01;5.82;;;2.53;;
47758;SDS011;33520;55.122;35.582;2023-01-08T10:01:29;190.15;;;40.78;;
47758;SDS011;33520;55.122;35.582;2023-01-08T10:06:38;446.70;;;118.55;;
47758;SDS011;33520;55.122;35.582;2023-01-08T10:09:05;286.08;;;83.25;;
47758;SDS011;33520;55.122;35.582;2023-01-08T10:14:04;62.63;;;21.20;;
47758;SDS011;33520;55.122;35.582;2023-01-08T10:16:40;33.95;;;12.80;;
47758;SDS011;33520;55.122;35.582;2023-01-08T10:19:07;22.00;;;7.75;;
47758;SDS011;33520;55.122;35.582;2023-01-08T10:21:38;17.52;;;7.43;;
47758;SDS011;33520;55.122;35.582;2023-01-08T10:24:05;11.82;;;4.80;;
47758;SDS011;33520;55.122;35.582;2023-01-08T10:26:34;19.02;;;5.20;;
47758;SDS011;33520;55.122;35.582;2023-01-08T10:29:05;22.08;;;5.55;;
47758;SDS011;33520;55.122;35.582;2023-01-08T10:31:32;13.70;;;5.65;;
47758;SDS011;33520;55.122;35.582;2023-01-08T10:34:05;8.95;;;3.88;;
47758;SDS011;33520;55.122;35.582;2023-01-08T10:36:36;12.85;;;4.45;;
47758;SDS011;33520;55.122;35.582;2023-01-08T10:39:04;11.15;;;3.90;;
47758;SDS011;33520;55.122;35.582;2023-01-08T10:41:31;15.80;;;4.75;;
47758;SDS011;33520;55.122;35.582;2023-01-08T10:44:06;9.10;;;3.70;;
47758;SDS011;33520;55.122;35.582;2023-01-08T10:46:41;11.93;;;4.70;;
47758;SDS011;33520;55.122;35.582;2023-01-08T10:49:16;27.80;;;9.98;;
47758;SDS011;33520;55.122;35.582;2023-01-08T10:51:50;17.80;;;7.60;;
47758;SDS011;33520;55.122;35.582;2023-01-08T10:54:36;17.38;;;6.45;;
47758;SDS011;33520;55.122;35.582;2023-01-08T10:57:23;17.63;;;7.60;;
47758;SDS011;33520;55.122;35.582;2023-01-08T10:59:53;21.95;;;6.47;;
47758;SDS011;33520;55.122;35.582;2023-01-08T11:04:52;13.52;;;4.97;;
47758;SDS011;33520;55.122;35.582;2023-01-08T11:09:46;15.53;;;5.17;;
47758;SDS011;33520;55.122;35.582;2023-01-08T11:15:06;25.60;;;7.10;;
47758;SDS011;33520;55.122;35.582;2023-01-08T11:17:39;34.35;;;10.23;;
47758;SDS011;33520;55.122;35.582;2023-01-08T11:20:06;29.48;;;9.70;;
47758;SDS011;33520;55.122;35.582;2023-01-08T11:22:35;39.47;;;9.68;;
47758;SDS011;33520;55.122;35.582;2023-01-08T11:25:01;23.50;;;7.63;;
47758;SDS011;33520;55.122;35.582;2023-01-08T11:27:33;18.77;;;5.35;;
47758;SDS011;33520;55.122;35.582;2023-01-08T11:32:49;27.88;;;12.82;;
47758;SDS011;33520;55.122;35.582;2023-01-08T11:35:35;21.00;;;5.88;;
47758;SDS011;33520;55.122;35.582;2023-01-08T11:38:05;20.10;;;6.85;;
47758;SDS011;33520;55.122;35.582;2023-01-08T11:40:43;17.45;;;6.05;;
47758;SDS011;33520;55.122;35.582;2023-01-08T11:46:43;16.77;;;5.10;;
47758;SDS011;33520;55.122;35.582;2023-01-08T11:49:30;7.53;;;3.17;;
47758;SDS011;33520;55.122;35.582;2023-01-08T11:57:23;7.97;;;2.25;;
47758;SDS011;33520;55.122;35.582;2023-01-08T12:11:26;5.32;;;2.35;;
47758;SDS011;33520;55.122;35.582;2023-01-08T12:22:35;6.00;;;2.00;;
47758;SDS011;33520;55.122;35.582;2023-01-08T12:30:37;5.07;;;1.52;;
47758;SDS011;33520;55.122;35.582;2023-01-08T12:33:15;3.55;;;1.77;;
47758;SDS011;33520;55.122;35.582;2023-01-08T12:36:01;4.30;;;1.38;;
47758;SDS011;33520;55.122;35.582;2023-01-08T12:38:32;6.70;;;2.20;;
47758;SDS011;33520;55.122;35.582;2023-01-08T12:41:05;6.60;;;2.72;;
47758;SDS011;33520;55.122;35.582;2023-01-08T12:43:50;4.78;;;2.05;;
47758;SDS011;33520;55.122;35.582;2023-01-08T12:46:18;4.78;;;1.92;;
47758;SDS011;33520;55.122;35.582;2023-01-08T12:48:47;4.75;;;2.03;;
47758;SDS011;33520;55.122;35.582;2023-01-08T12:51:37;5.63;;;2.25;;
47758;SDS011;33520;55.122;35.582;2023-01-08T12:54:20;3.88;;;1.77;;
47758;SDS011;33520;55.122;35.582;2023-01-08T12:59:43;6.75;;;2.03;;
47758;SDS011;33520;55.122;35.582;2023-01-08T13:02:18;4.03;;;1.85;;
47758;SDS011;33520;55.122;35.582;2023-01-08T13:04:54;3.03;;;1.80;;
47758;SDS011;33520;55.122;35.582;2023-01-08T13:07:25;4.53;;;1.80;;
47758;SDS011;33520;55.122;35.582;2023-01-08T13:10:03;2.63;;;1.67;;
47758;SDS011;33520;55.122;35.582;2023-01-08T13:12:37;2.67;;;1.75;;
47758;SDS011;33520;55.122;35.582;2023-01-08T13:15:05;5.57;;;2.10;;
47758;SDS011;33520;55.122;35.582;2023-01-08T13:17:32;5.20;;;1.60;;
47758;SDS011;33520;55.122;35.582;2023-01-08T13:20:02;4.05;;;2.22;;
47758;SDS011;33520;55.122;35.582;2023-01-08T13:22:34;5.65;;;1.80;;
47758;SDS011;33520;55.122;35.582;2023-01-08T13:27:40;4.97;;;1.73;;
47758;SDS011;33520;55.122;35.582;2023-01-08T13:32:55;3.28;;;1.58;;
47758;SDS011;33520;55.122;35.582;2023-01-08T13:35:23;4.97;;;1.85;;
47758;SDS011;33520;55.122;35.582;2023-01-08T13:37:51;6.40;;;2.28;;
47758;SDS011;33520;55.122;35.582;2023-01-08T13:43:11;7.72;;;2.35;;
47758;SDS011;33520;55.122;35.582;2023-01-08T13:45:37;3.33;;;2.38;;
47758;SDS011;33520;55.122;35.582;2023-01-08T13:48:05;5.13;;;1.80;;
47758;SDS011;33520;55.122;35.582;2023-01-08T13:50:31;3.25;;;1.60;;
47758;SDS011;33520;55.122;35.582;2023-01-08T13:52:58;2.75;;;1.50;;
47758;SDS011;33520;55.122;35.582;2023-01-08T13:56:09;4.40;;;1.60;;
47758;SDS011;33520;55.122;35.582;2023-01-08T13:58:41;8.13;;;2.10;;
47758;SDS011;33520;55.122;35.582;2023-01-08T14:01:11;5.65;;;1.95;;
47758;SDS011;33520;55.122;35.582;2023-01-08T14:03:43;6.43;;;1.67;;
47758;SDS011;33520;55.122;35.582;2023-01-08T14:06:17;4.20;;;1.92;;
47758;SDS011;33520;55.122;35.582;2023-01-08T14:08:51;5.38;;;1.70;;
47758;SDS011;33520;55.122;35.582;2023-01-08T14:11:21;9.98;;;2.45;;
47758;SDS011;33520;55.122;35.582;2023-01-08T14:13:48;5.50;;;2.00;;
47758;SDS011;33520;55.122;35.582;2023-01-08T14:16:15;3.67;;;1.67;;
47758;SDS011;33520;55.122;35.582;2023-01-08T14:18:49;4.95;;;1.63;;
47758;SDS011;33520;55.122;35.582;2023-01-08T14:21:20;7.10;;;2.40;;
47758;SDS011;33520;55.122;35.582;2023-01-08T14:23:47;4.95;;;2.05;;
47758;SDS011;33520;55.122;35.582;2023-01-08T14:26:26;6.25;;;2.30;;
47758;SDS011;33520;55.122;35.582;2023-01-08T14:28:55;5.63;;;1.95;;
47758;SDS011;33520;55.122;35.582;2023-01-08T14:31:25;3.80;;;1.80;;
47758;SDS011;33520;55.122;35.582;2023-01-08T14:33:53;8.20;;;2.35;;
47758;SDS011;33520;55.122;35.582;2023-01-08T14:36:20;5.85;;;1.77;;
47758;SDS011;33520;55.122;35.582;2023-01-08T14:38:47;6.32;;;2.05;;
47758;SDS011;33520;55.122;35.582;2023-01-08T14:41:38;5.80;;;2.45;;
47758;SDS011;33520;55.122;35.582;2023-01-08T14:44:23;5.82;;;2.20;;
47758;SDS011;33520;55.122;35.582;2023-01-08T14:46:51;4.68;;;2.13;;
47758;SDS011;33520;55.122;35.582;2023-01-08T14:49:22;6.47;;;2.42;;
47758;SDS011;33520;55.122;35.582;2023-01-08T14:51:50;5.82;;;2.28;;
47758;SDS011;33520;55.122;35.582;2023-01-08T14:56:46;4.35;;;2.00;;
47758;SDS011;33520;55.122;35.582;2023-01-08T14:59:14;4.60;;;1.83;;
47758;SDS011;33520;55.122;35.582;2023-01-08T15:01:42;4.20;;;1.90;;
47758;SDS011;33520;55.122;35.582;2023-01-08T15:04:13;7.15;;;2.63;;
47758;SDS011;33520;55.122;35.582;2023-01-08T15:06:41;6.35;;;2.28;;
47758;SDS011;33520;55.122;35.582;2023-01-08T15:09:21;5.88;;;2.60;;
47758;SDS011;33520;55.122;35.582;2023-01-08T15:11:56;4.55;;;2.45;;
47758;SDS011;33520;55.122;35.582;2023-01-08T15:14:27;4.25;;;2.22;;
47758;SDS011;33520;55.122;35.582;2023-01-08T15:16:56;7.22;;;2.55;;
47758;SDS011;33520;55.122;35.582;2023-01-08T15:19:24;5.97;;;2.20;;
47758;SDS011;33520;55.122;35.582;2023-01-08T15:21:52;8.27;;;2.45;;
47758;SDS011;33520;55.122;35.582;2023-01-08T15:24:23;6.63;;;2.22;;
47758;SDS011;33520;55.122;35.582;2023-01-08T15:26:51;12.48;;;2.97;;
47758;SDS011;33520;55.122;35.582;2023-01-08T15:31:47;8.40;;;2.67;;
47758;SDS011;33520;55.122;35.582;2023-01-08T15:34:14;7.95;;;3.20;;
47758;SDS011;33520;55.122;35.582;2023-01-08T15:36:45;7.47;;;2.47;;
47758;SDS011;33520;55.122;35.582;2023-01-08T15:39:12;9.85;;;3.33;;
47758;SDS011;33520;55.122;35.582;2023-01-08T15:41:38;9.68;;;3.80;;
47758;SDS011;33520;55.122;35.582;2023-01-08T15:44:24;8.18;;;3.03;;
47758;SDS011;33520;55.122;35.582;2023-01-08T15:46:50;8.75;;;3.50;;
47758;SDS011;33520;55.122;35.582;2023-01-08T15:49:17;8.98;;;3.53;;
47758;SDS011;33520;55.122;35.582;2023-01-08T15:51:44;6.38;;;3.42;;
47758;SDS011;33520;55.122;35.582;2023-01-08T15:54:12;9.18;;;3.13;;
47758;SDS011;33520;55.122;35.582;2023-01-08T15:56:38;8.20;;;3.20;;
47758;SDS011;33520;55.122;35.582;2023-01-08T16:01:31;7.97;;;2.38;;
47758;SDS011;33520;55.122;35.582;2023-01-08T16:03:58;7.95;;;2.88;;
47758;SDS011;33520;55.122;35.582;2023-01-08T16:06:24;3.97;;;2.22;;
47758;SDS011;33520;55.122;35.582;2023-01-08T16:08:50;9.52;;;3.03;;
47758;SDS011;33520;55.122;35.582;2023-01-08T16:13:43;8.43;;;3.38;;
47758;SDS011;33520;55.122;35.582;2023-01-08T16:18:36;7.30;;;2.58;;
47758;SDS011;33520;55.122;35.582;2023-01-08T16:21:03;4.90;;;2.78;;
47758;SDS011;33520;55.122;35.582;2023-01-08T16:23:33;8.93;;;3.33;;
47758;SDS011;33520;55.122;35.582;2023-01-08T16:26:08;7.50;;;2.90;;
47758;SDS011;33520;55.122;35.582;2023-01-08T16:28:35;12.82;;;3.35;;
47758;SDS011;33520;55.122;35.582;2023-01-08T16:31:02;4.50;;;2.15;;
47758;SDS011;33520;55.122;35.582;2023-01-08T16:33:29;6.68;;;2.65;;
47758;SDS011;33520;55.122;35.582;2023-01-08T16:36:02;9.73;;;3.10;;
47758;SDS011;33520;55.122;35.582;2023-01-08T16:38:30;7.50;;;2.60;;
47758;SDS011;33520;55.122;35.582;2023-01-08T16:43:23;3.63;;;2.28;;
47758;SDS011;33520;55.122;35.582;2023-01-08T16:45:50;8.13;;;2.28;;
47758;SDS011;33520;55.122;35.582;2023-01-08T16:48:16;7.22;;;2.85;;
47758;SDS011;33520;55.122;35.582;2023-01-08T16:50:43;6.82;;;2.90;;
47758;SDS011;33520;55.122;35.582;2023-01-08T16:53:10;10.48;;;2.75;;
47758;SDS011;33520;55.122;35.582;2023-01-08T16:55:37;7.68;;;3.50;;